RPA3537 KHXD-KEWR
Flight info
| Callsign | RPA3537 |
|---|---|
| Flight time | N/A |
| Altitude | 29000 |
| Route | JROSS Q87 ALWZZ OGRAE Q99 QUART PHLBO4 |
| Aircraft | E75L/M-SDE3GILORVW/S |
Departure
| Time | 2026-05-05 21:10 |
|---|---|
| Airport | Hilton Head Airport (KHXD) |
Arrival
| Time | N/A |
|---|---|
| Airport | Newark Liberty International Airport (KEWR) |
| Time | Latitude | Longitude | Altitude | Speed | Heading |
|---|---|---|---|---|---|
| 2026-05-05 20:51 | 32.22592 | -80.69906 | 26 ft | 0 kts | 38° |
| 2026-05-05 21:06 | 32.22594 | -80.69902 | 26 ft | 2 kts | 57° |
| 2026-05-05 21:06 | 32.22589 | -80.69871 | 26 ft | 6 kts | 132° |
| 2026-05-05 21:06 | 32.22531 | -80.69862 | 26 ft | 10 kts | 171° |
| 2026-05-05 21:07 | 32.22496 | -80.69832 | 27 ft | 7 kts | 155° |
| 2026-05-05 21:07 | 32.22467 | -80.69842 | 27 ft | 4 kts | 200° |
| 2026-05-05 21:07 | 32.22422 | -80.69864 | 27 ft | 10 kts | 207° |
| 2026-05-05 21:07 | 32.22345 | -80.69911 | 28 ft | 13 kts | 208° |
| 2026-05-05 21:08 | 32.22257 | -80.69960 | 28 ft | 14 kts | 206° |
| 2026-05-05 21:08 | 32.22161 | -80.70014 | 28 ft | 16 kts | 205° |
| 2026-05-05 21:08 | 32.22057 | -80.70073 | 29 ft | 17 kts | 206° |
| 2026-05-05 21:08 | 32.21950 | -80.70136 | 29 ft | 17 kts | 206° |
| 2026-05-05 21:09 | 32.21888 | -80.70162 | 30 ft | 6 kts | 161° |
| 2026-05-05 21:09 | 32.21854 | -80.70121 | 30 ft | 9 kts | 115° |
| 2026-05-05 21:09 | 32.21872 | -80.70076 | 29 ft | 0 kts | 27° |
| 2026-05-05 21:10 | 32.22156 | -80.69910 | 27 ft | 87 kts | 26° |
| 2026-05-05 21:10 | 32.22620 | -80.69642 | 28 ft | 137 kts | 26° |
| 2026-05-05 21:10 | 32.24001 | -80.68847 | 735 ft | 175 kts | 30° |
| 2026-05-05 21:10 | 32.25173 | -80.68243 | 1469 ft | 193 kts | 20° |
| 2026-05-05 21:11 | 32.26540 | -80.67927 | 2029 ft | 209 kts | 6° |
| 2026-05-05 21:11 | 32.28048 | -80.67880 | 2576 ft | 227 kts | 1° |
| 2026-05-05 21:11 | 32.29673 | -80.67886 | 3223 ft | 243 kts | 2° |
| 2026-05-05 21:11 | 32.31513 | -80.67784 | 3390 ft | 284 kts | 6° |
| 2026-05-05 21:12 | 32.33495 | -80.67513 | 4253 ft | 289 kts | 7° |
| 2026-05-05 21:12 | 32.35486 | -80.67182 | 5307 ft | 287 kts | 6° |
| 2026-05-05 21:12 | 32.37421 | -80.66880 | 6333 ft | 283 kts | 5° |
| 2026-05-05 21:12 | 32.39395 | -80.66620 | 7264 ft | 281 kts | 4° |
| 2026-05-05 21:13 | 32.41360 | -80.66392 | 8021 ft | 287 kts | 2° |
| 2026-05-05 21:13 | 32.43353 | -80.66168 | 8809 ft | 290 kts | 3° |
| 2026-05-05 21:13 | 32.45371 | -80.65927 | 9558 ft | 294 kts | 3° |
| 2026-05-05 21:13 | 32.46724 | -80.65759 | 10051 ft | 296 kts | 3° |
| 2026-05-05 21:14 | 32.48839 | -80.65493 | 10236 ft | 319 kts | 3° |
| 2026-05-05 21:14 | 32.51908 | -80.65116 | 10362 ft | 348 kts | 4° |
| 2026-05-05 21:14 | 32.54320 | -80.64818 | 10981 ft | 349 kts | 3° |
| 2026-05-05 21:14 | 32.56734 | -80.64516 | 11693 ft | 349 kts | 4° |
| 2026-05-05 21:15 | 32.59155 | -80.64213 | 12348 ft | 352 kts | 3° |
| 2026-05-05 21:15 | 32.60809 | -80.64010 | 12799 ft | 354 kts | 3° |
| 2026-05-05 21:15 | 32.63237 | -80.63714 | 13503 ft | 357 kts | 3° |
| 2026-05-05 21:15 | 32.65721 | -80.63411 | 14180 ft | 361 kts | 3° |
| 2026-05-05 21:16 | 32.68226 | -80.63106 | 14855 ft | 363 kts | 3° |
| 2026-05-05 21:16 | 32.70744 | -80.62749 | 15526 ft | 367 kts | 8° |
| 2026-05-05 21:16 | 32.73182 | -80.61736 | 16154 ft | 375 kts | 20° |
| 2026-05-05 21:16 | 32.75550 | -80.60396 | 16785 ft | 379 kts | 24° |
| 2026-05-05 21:17 | 32.77895 | -80.58923 | 17388 ft | 383 kts | 25° |
| 2026-05-05 21:17 | 32.80252 | -80.57421 | 18004 ft | 386 kts | 24° |
| 2026-05-05 21:17 | 32.82655 | -80.55949 | 18513 ft | 391 kts | 23° |
| 2026-05-05 21:17 | 32.85096 | -80.54511 | 19077 ft | 392 kts | 22° |
| 2026-05-05 21:18 | 32.87554 | -80.53082 | 19641 ft | 395 kts | 22° |
| 2026-05-05 21:18 | 32.90031 | -80.51630 | 20208 ft | 398 kts | 22° |
| 2026-05-05 21:18 | 32.92514 | -80.50153 | 20803 ft | 400 kts | 22° |
| 2026-05-05 21:18 | 32.95009 | -80.48658 | 21383 ft | 403 kts | 22° |
| 2026-05-05 21:19 | 32.97520 | -80.47153 | 21944 ft | 405 kts | 22° |
| 2026-05-05 21:19 | 33.00049 | -80.45641 | 22479 ft | 408 kts | 21° |
| 2026-05-05 21:19 | 33.02607 | -80.44113 | 23011 ft | 411 kts | 21° |
| 2026-05-05 21:19 | 33.05200 | -80.42559 | 23522 ft | 413 kts | 21° |
| 2026-05-05 21:20 | 33.07776 | -80.41015 | 23968 ft | 415 kts | 21° |
| 2026-05-05 21:20 | 33.10366 | -80.39460 | 24369 ft | 418 kts | 21° |
| 2026-05-05 21:20 | 33.12964 | -80.37899 | 24782 ft | 420 kts | 21° |
| 2026-05-05 21:20 | 33.15581 | -80.36325 | 25195 ft | 422 kts | 21° |
| 2026-05-05 21:21 | 33.18211 | -80.34740 | 25622 ft | 424 kts | 20° |
| 2026-05-05 21:21 | 33.20821 | -80.33166 | 26158 ft | 422 kts | 20° |
| 2026-05-05 21:21 | 33.23433 | -80.31588 | 26717 ft | 420 kts | 20° |
| 2026-05-05 21:21 | 33.26069 | -80.29995 | 27272 ft | 418 kts | 20° |
| 2026-05-05 21:22 | 33.28633 | -80.28445 | 27785 ft | 417 kts | 20° |
| 2026-05-05 21:22 | 33.31218 | -80.26882 | 28327 ft | 415 kts | 19° |
| 2026-05-05 21:22 | 33.33780 | -80.25330 | 28882 ft | 413 kts | 19° |
| 2026-05-05 21:22 | 33.36346 | -80.23773 | 29243 ft | 416 kts | 19° |
| 2026-05-05 21:23 | 33.38975 | -80.22189 | 29023 ft | 429 kts | 19° |
| 2026-05-05 21:23 | 33.41640 | -80.20573 | 29092 ft | 431 kts | 20° |
| 2026-05-05 21:23 | 33.46984 | -80.17305 | 29074 ft | 431 kts | 20° |
| 2026-05-05 21:24 | 33.52294 | -80.14058 | 29065 ft | 424 kts | 19° |
| 2026-05-05 21:24 | 33.57565 | -80.10851 | 29028 ft | 425 kts | 19° |
| 2026-05-05 21:25 | 33.62821 | -80.07639 | 29064 ft | 425 kts | 19° |
| 2026-05-05 21:25 | 33.68085 | -80.04427 | 29072 ft | 424 kts | 19° |
| 2026-05-05 21:26 | 33.73322 | -80.01268 | 29067 ft | 424 kts | 19° |
| 2026-05-05 21:26 | 33.78595 | -79.98078 | 29075 ft | 424 kts | 19° |
| 2026-05-05 21:27 | 33.83868 | -79.94874 | 29058 ft | 424 kts | 19° |
| 2026-05-05 21:27 | 33.89141 | -79.91667 | 29073 ft | 424 kts | 19° |